createdAt,value
2018-09-26T00:02:29.475Z,96885.41
2018-09-26T00:04:58.241Z,96888.26
2018-09-26T00:07:26.967Z,96893.41
2018-09-26T00:09:55.693Z,96890.05
2018-09-26T00:12:24.426Z,96892.91
2018-09-26T00:14:53.183Z,96891.13
2018-09-26T00:17:21.885Z,96890.20
2018-09-26T00:19:50.578Z,96887.25
2018-09-26T00:22:19.330Z,96882.22
2018-09-26T00:24:48.177Z,96887.33
2018-09-26T00:27:16.924Z,96883.66
2018-09-26T00:29:45.635Z,96887.15
2018-09-26T00:32:14.316Z,96885.77
2018-09-26T00:34:43.053Z,96881.31
2018-09-26T00:37:11.903Z,96881.20
2018-09-26T00:39:40.666Z,96885.98
2018-09-26T00:42:09.413Z,96886.08
2018-09-26T00:44:38.099Z,96888.05
2018-09-26T00:47:06.844Z,96886.69
2018-09-26T00:49:35.500Z,96889.58
2018-09-26T00:52:04.151Z,96885.28
2018-09-26T00:54:32.885Z,96891.20
2018-09-26T00:57:01.540Z,96897.16
2018-09-26T00:59:30.196Z,96890.55
2018-09-26T01:01:58.851Z,96906.87
2018-09-26T01:04:27.598Z,96909.01
2018-09-26T01:06:56.259Z,96900.83
2018-09-26T01:09:24.943Z,96902.80
2018-09-26T01:11:53.741Z,96897.50
2018-09-26T01:14:22.370Z,96895.25
2018-09-26T01:16:51.042Z,96898.84
2018-09-26T01:19:19.728Z,96899.14
2018-09-26T01:21:48.380Z,96894.70
2018-09-26T01:24:17.049Z,96910.16
2018-09-26T01:26:45.793Z,96920.72
2018-09-26T01:29:14.544Z,96912.97
2018-09-26T01:31:43.296Z,96915.39
2018-09-26T01:34:12.012Z,96919.64
2018-09-26T01:36:40.692Z,96916.70
2018-09-26T01:39:10.074Z,96912.16
2018-09-26T01:41:38.930Z,96920.20
2018-09-26T01:44:07.615Z,96917.44
2018-09-26T01:46:36.358Z,96916.86
2018-09-26T01:49:05.133Z,96921.63
2018-09-26T01:51:33.903Z,96914.64
2018-09-26T01:54:02.624Z,96911.49
2018-09-26T01:56:31.353Z,96913.84
2018-09-26T01:59:00.120Z,96906.73
2018-09-26T02:01:29.041Z,96907.81
2018-09-26T02:03:57.764Z,96902.93
2018-09-26T02:06:26.449Z,96902.67
2018-09-26T02:08:55.160Z,96786.20
2018-09-26T02:11:23.841Z,96912.59
2018-09-26T02:13:52.493Z,96906.44
2018-09-26T02:16:21.189Z,96919.10
2018-09-26T02:18:49.803Z,96907.55
2018-09-26T02:21:18.471Z,96913.42
2018-09-26T02:23:47.178Z,96911.84
2018-09-26T02:26:15.854Z,96915.32
2018-09-26T02:28:44.491Z,96913.20
2018-09-26T02:31:13.157Z,96906.77
2018-09-26T02:33:41.826Z,96910.78
2018-09-26T02:36:10.504Z,96911.34
2018-09-26T02:38:39.165Z,96912.94
2018-09-26T02:41:07.848Z,96912.14
2018-09-26T02:43:36.705Z,96918.33
2018-09-26T02:46:05.431Z,96902.52
2018-09-26T02:48:39.345Z,96899.85
2018-09-26T02:51:08.015Z,96893.41
2018-09-26T02:53:36.624Z,96901.70
2018-09-26T02:56:05.300Z,96898.48
2018-09-26T02:58:34.061Z,96908.95
2018-09-26T03:01:02.743Z,96902.25
2018-09-26T03:03:31.595Z,96901.73
2018-09-26T03:06:00.237Z,96902.23
2018-09-26T03:08:28.876Z,96896.59
2018-09-26T03:10:57.664Z,96889.88
2018-09-26T03:13:26.398Z,96893.36
2018-09-26T03:15:55.020Z,96892.84
2018-09-26T03:18:23.761Z,96888.00
2018-09-26T03:20:52.557Z,96896.05
2018-09-26T03:23:21.249Z,96895.80
2018-09-26T03:25:50.013Z,96886.13
2018-09-26T03:28:18.705Z,96890.97
2018-09-26T03:30:47.412Z,96896.33
2018-09-26T03:33:16.252Z,96897.89
2018-09-26T03:35:44.939Z,96898.02
2018-09-26T03:38:13.678Z,96894.72
2018-09-26T03:40:42.303Z,96888.77
2018-09-26T03:43:11.169Z,96898.41
2018-09-26T03:45:39.925Z,96901.13
2018-09-26T03:48:08.680Z,96897.61
2018-09-26T03:50:37.398Z,96900.25
2018-09-26T03:53:06.106Z,96903.95
2018-09-26T03:55:34.842Z,96912.70
2018-09-26T03:58:03.562Z,96908.56
2018-09-26T04:00:32.277Z,96904.91
2018-09-26T04:03:01.210Z,96910.84
2018-09-26T04:05:29.915Z,96921.53
2018-09-26T04:07:58.631Z,96924.41
2018-09-26T04:10:27.332Z,96925.16
2018-09-26T04:12:56.093Z,96931.27
2018-09-26T04:15:24.760Z,96935.63
2018-09-26T04:17:53.400Z,96934.81
2018-09-26T04:20:22.079Z,96942.09
2018-09-26T04:22:51.117Z,96938.58
2018-09-26T04:25:19.970Z,96936.78
2018-09-26T04:27:48.780Z,96954.90
2018-09-26T04:30:17.667Z,96957.02
2018-09-26T04:32:46.334Z,96960.00
2018-09-26T04:35:14.929Z,96959.06
2018-09-26T04:37:43.625Z,96955.39
2018-09-26T04:40:12.361Z,96953.90
2018-09-26T04:42:41.048Z,96955.06
2018-09-26T04:45:09.746Z,96970.09
2018-09-26T04:47:42.230Z,96970.66
2018-09-26T04:50:10.901Z,96966.60
2018-09-26T04:52:39.682Z,96969.20
2018-09-26T04:55:08.456Z,96970.70
2018-09-26T04:57:37.150Z,96973.48
2018-09-26T05:00:07.532Z,96966.09
2018-09-26T05:02:36.166Z,96965.52
2018-09-26T05:05:19.316Z,96968.42
2018-09-26T05:07:48.080Z,96968.66
2018-09-26T05:10:16.757Z,96973.85
2018-09-26T05:12:45.468Z,96977.88
2018-09-26T05:15:14.260Z,96974.84
2018-09-26T05:17:43.019Z,96721.30
2018-09-26T05:20:11.793Z,96970.07
2018-09-26T05:22:40.496Z,96979.83
2018-09-26T05:25:09.371Z,96987.08
2018-09-26T05:27:38.207Z,96984.05
2018-09-26T05:30:07.072Z,96980.27
2018-09-26T05:32:35.723Z,96984.34
2018-09-26T05:35:04.444Z,96996.86
2018-09-26T05:37:33.073Z,96995.58
2018-09-26T05:40:01.833Z,97003.94
2018-09-26T05:42:30.605Z,97001.75
2018-09-26T05:44:59.279Z,96998.20
2018-09-26T05:47:28.073Z,97007.88
2018-09-26T05:49:56.766Z,97005.40
2018-09-26T05:52:25.435Z,97014.19
2018-09-26T05:54:54.625Z,97011.62
2018-09-26T05:57:23.403Z,97017.27
2018-09-26T05:59:52.171Z,97022.19
2018-09-26T06:02:20.856Z,97015.85
2018-09-26T06:04:49.705Z,97013.17
2018-09-26T06:07:18.347Z,97021.72
2018-09-26T06:09:46.991Z,97027.94
2018-09-26T06:12:15.766Z,97030.48
2018-09-26T06:14:44.453Z,97029.13
2018-09-26T06:17:13.136Z,97027.95
2018-09-26T06:19:41.780Z,97024.82
2018-09-26T06:22:10.621Z,97025.83
2018-09-26T06:24:39.459Z,97029.36
2018-09-26T06:27:08.289Z,97024.28
2018-09-26T06:29:37.284Z,97024.86
2018-09-26T06:32:06.162Z,97029.10
2018-09-26T06:34:34.859Z,97027.69
2018-09-26T06:37:03.580Z,97038.84
2018-09-26T06:39:32.345Z,97034.78
2018-09-26T06:42:01.236Z,97038.42
2018-09-26T06:44:29.849Z,97035.50
2018-09-26T06:46:58.487Z,97038.81
2018-09-26T06:49:27.214Z,97046.81
2018-09-26T06:51:55.884Z,97045.98
2018-09-26T06:54:24.678Z,97048.64
2018-09-26T06:56:53.316Z,97040.71
2018-09-26T06:59:21.989Z,97042.55
2018-09-26T07:01:50.651Z,97041.63
2018-09-26T07:04:19.347Z,97051.20
2018-09-26T07:06:47.990Z,97041.01
2018-09-26T07:09:16.779Z,97039.33
2018-09-26T07:11:45.543Z,97043.73
2018-09-26T07:14:14.216Z,97043.84
2018-09-26T07:16:43.035Z,97047.72
2018-09-26T07:19:11.827Z,97048.93
2018-09-26T07:21:40.511Z,97047.86
2018-09-26T07:24:09.217Z,97043.16
2018-09-26T07:26:37.959Z,97039.77
2018-09-26T07:29:06.804Z,97029.05
2018-09-26T07:31:35.599Z,96806.02
2018-09-26T07:34:04.244Z,97039.09
2018-09-26T07:36:33.064Z,97035.78
2018-09-26T07:39:01.848Z,97037.20
2018-09-26T07:41:30.725Z,97038.31
2018-09-26T07:43:59.433Z,97039.77
2018-09-26T07:46:28.360Z,97035.64
2018-09-26T07:48:57.123Z,97037.47
2018-09-26T07:51:25.873Z,97039.84
2018-09-26T07:53:54.707Z,97037.45
2018-09-26T07:56:23.477Z,97044.70
2018-09-26T07:58:52.136Z,97046.66
2018-09-26T08:01:20.904Z,97041.06
2018-09-26T08:03:49.697Z,97040.89
2018-09-26T08:06:18.474Z,97046.57
2018-09-26T08:08:47.200Z,97035.28
2018-09-26T08:11:16.013Z,97032.14
2018-09-26T08:13:44.725Z,97036.65
2018-09-26T08:16:13.488Z,97033.45
2018-09-26T08:18:42.352Z,97039.34
2018-09-26T08:21:11.134Z,97023.19
2018-09-26T08:23:40.122Z,97025.12
2018-09-26T08:26:08.853Z,97025.05
2018-09-26T08:28:37.676Z,97025.90
2018-09-26T08:31:06.525Z,97027.59
2018-09-26T08:33:35.332Z,97027.25
2018-09-26T08:36:04.036Z,97027.89
2018-09-26T08:38:32.864Z,97033.49
2018-09-26T08:41:01.593Z,97026.45
2018-09-26T08:43:30.340Z,97015.16
2018-09-26T08:45:59.054Z,97020.25
2018-09-26T08:48:27.889Z,97028.05
2018-09-26T08:50:56.568Z,97019.48
2018-09-26T08:53:25.766Z,97009.80
2018-09-26T08:55:55.676Z,97017.45
2018-09-26T08:58:24.486Z,97011.98
2018-09-26T09:00:54.640Z,97010.55
2018-09-26T09:03:23.393Z,97014.27
2018-09-26T09:05:52.541Z,97022.42
2018-09-26T09:08:21.342Z,97016.28
2018-09-26T09:10:50.048Z,97023.55
2018-09-26T09:13:18.835Z,97022.93
2018-09-26T09:15:47.606Z,97023.27
2018-09-26T09:18:16.328Z,97027.64
2018-09-26T09:20:45.093Z,97023.33
2018-09-26T09:23:13.825Z,97031.88
2018-09-26T09:25:42.628Z,97024.20
2018-09-26T09:28:11.440Z,97012.91
2018-09-26T09:30:40.200Z,97028.58
2018-09-26T09:33:08.980Z,97024.02
2018-09-26T09:35:37.670Z,97039.72
2018-09-26T09:38:06.792Z,97036.84
2018-09-26T09:40:35.584Z,97033.38
2018-09-26T09:43:04.385Z,97038.52
2018-09-26T09:45:33.032Z,97044.09
2018-09-26T09:48:01.731Z,97032.95
2018-09-26T09:50:30.398Z,97035.75
2018-09-26T09:52:59.140Z,97038.28
2018-09-26T09:55:27.929Z,97031.97
2018-09-26T09:57:56.980Z,97036.30
2018-09-26T10:00:30.889Z,97039.61
2018-09-26T10:02:59.743Z,97028.13
2018-09-26T10:05:28.402Z,97029.58
2018-09-26T10:07:57.177Z,97019.73
2018-09-26T10:10:26.440Z,97026.83
2018-09-26T10:12:55.268Z,97027.41
2018-09-26T10:15:24.017Z,97022.14
2018-09-26T10:17:52.764Z,97015.19
2018-09-26T10:20:21.614Z,97012.42
2018-09-26T10:22:50.368Z,97003.39
2018-09-26T10:25:19.092Z,97029.67
2018-09-26T10:27:47.767Z,97029.94
2018-09-26T10:30:19.150Z,97026.78
2018-09-26T10:32:47.800Z,97028.70
2018-09-26T10:35:16.519Z,97022.25
2018-09-26T10:37:45.256Z,97027.78
2018-09-26T10:40:14.149Z,97020.14
2018-09-26T10:42:42.895Z,97031.09
2018-09-26T10:45:11.919Z,97012.40
2018-09-26T10:47:40.619Z,97002.34
2018-09-26T10:50:10.198Z,97016.72
2018-09-26T10:52:38.867Z,97012.08
2018-09-26T10:55:07.651Z,97013.05
2018-09-26T10:57:36.276Z,97001.93
2018-09-26T11:00:06.196Z,97006.92
2018-09-26T11:02:34.960Z,96997.70
2018-09-26T11:05:03.747Z,97002.81
2018-09-26T11:07:32.402Z,96992.91
2018-09-26T11:10:01.056Z,97007.41
2018-09-26T11:12:29.880Z,96997.21
2018-09-26T11:14:58.646Z,96992.70
2018-09-26T11:17:27.428Z,96992.89
2018-09-26T11:19:56.070Z,96991.02
2018-09-26T11:22:24.838Z,96985.51
2018-09-26T11:24:53.433Z,96977.75
2018-09-26T11:27:22.132Z,96990.08
2018-09-26T11:29:50.840Z,96985.28
2018-09-26T11:32:19.679Z,96984.63
2018-09-26T11:34:48.443Z,96971.41
2018-09-26T11:37:17.219Z,96982.17
2018-09-26T11:39:46.008Z,96975.67
2018-09-26T11:42:14.768Z,96979.17
2018-09-26T11:44:43.523Z,96971.13
2018-09-26T11:47:12.426Z,96972.91
2018-09-26T11:49:41.233Z,96961.66
2018-09-26T11:52:09.998Z,96968.02
2018-09-26T11:54:38.766Z,96956.09
2018-09-26T11:57:07.567Z,96948.95
2018-09-26T11:59:36.271Z,96948.95
2018-09-26T12:02:04.977Z,96935.00
2018-09-26T12:04:33.702Z,96958.61
2018-09-26T12:07:02.725Z,96950.88
2018-09-26T12:09:31.380Z,96938.44
2018-09-26T12:12:00.121Z,96947.05
2018-09-26T12:14:28.883Z,96939.00
2018-09-26T12:16:57.624Z,96938.48
2018-09-26T12:19:26.474Z,96916.08
2018-09-26T12:21:55.288Z,96924.96
2018-09-26T12:24:24.134Z,96922.55
2018-09-26T12:26:52.779Z,96926.70
2018-09-26T12:29:21.519Z,96931.89
2018-09-26T12:31:50.214Z,96930.18
2018-09-26T12:34:19.020Z,96924.80
2018-09-26T12:36:47.818Z,96930.14
2018-09-26T12:39:16.522Z,96935.87
2018-09-26T12:41:45.400Z,96940.57
2018-09-26T12:44:14.087Z,96940.78
2018-09-26T12:46:42.803Z,96937.95
2018-09-26T12:49:11.574Z,96930.09
2018-09-26T12:51:40.330Z,96933.98
2018-09-26T12:54:09.057Z,96931.32
2018-09-26T12:56:37.861Z,96925.84
2018-09-26T12:59:06.629Z,96929.87
2018-09-26T13:01:35.405Z,96930.55
2018-09-26T13:04:04.154Z,96931.59
2018-09-26T13:06:32.880Z,96933.00
2018-09-26T13:09:01.584Z,96934.69
2018-09-26T13:11:30.281Z,96940.27
2018-09-26T13:13:59.028Z,96937.45
2018-09-26T13:16:27.879Z,96930.00
2018-09-26T13:18:56.710Z,96927.69
2018-09-26T13:21:25.414Z,96931.03
2018-09-26T13:23:54.107Z,96930.52
2018-09-26T13:26:22.973Z,96917.66
2018-09-26T13:28:51.725Z,96915.34
2018-09-26T13:31:20.195Z,96917.50
2018-09-26T13:33:48.949Z,96917.34
2018-09-26T13:36:17.689Z,96912.38
2018-09-26T13:38:46.436Z,96911.80
2018-09-26T13:41:15.251Z,96924.20
2018-09-26T13:43:44.006Z,96915.27
2018-09-26T13:46:12.840Z,96916.41
2018-09-26T13:48:42.058Z,96909.66
2018-09-26T13:51:10.823Z,96913.63
2018-09-26T13:53:39.660Z,96903.98
2018-09-26T13:56:08.412Z,96911.69
2018-09-26T13:58:37.231Z,96905.24
2018-09-26T14:01:05.953Z,96900.19
2018-09-26T14:03:34.824Z,96897.70
2018-09-26T14:06:03.546Z,96902.41
2018-09-26T14:08:32.269Z,96908.38
2018-09-26T14:11:01.080Z,96906.45
2018-09-26T14:13:29.863Z,96904.72
2018-09-26T14:15:58.571Z,96904.98
2018-09-26T14:18:27.413Z,96911.12
2018-09-26T14:20:56.179Z,96905.00
2018-09-26T14:23:24.993Z,96907.94
2018-09-26T14:25:53.820Z,96895.52
2018-09-26T14:28:22.673Z,96908.52
2018-09-26T14:30:51.615Z,96906.84
2018-09-26T14:33:20.418Z,96904.63
2018-09-26T14:35:49.078Z,96902.57
2018-09-26T14:38:17.800Z,96901.48
2018-09-26T14:40:46.513Z,96905.02
2018-09-26T14:43:15.296Z,96907.66
2018-09-26T14:45:44.143Z,96894.88
2018-09-26T14:48:12.800Z,96906.25
2018-09-26T14:50:41.671Z,96908.95
2018-09-26T14:53:10.373Z,96909.56
2018-09-26T14:55:39.089Z,96910.73
2018-09-26T14:58:08.745Z,96906.98
2018-09-26T15:00:37.664Z,96921.17
2018-09-26T15:03:06.453Z,96923.88
2018-09-26T15:05:35.232Z,96926.03
2018-09-26T15:08:03.908Z,96929.55
2018-09-26T15:10:32.729Z,96935.42
2018-09-26T15:13:01.540Z,96928.50
2018-09-26T15:15:30.360Z,96930.85
2018-09-26T15:17:59.152Z,96937.57
2018-09-26T15:20:28.073Z,96937.97
2018-09-26T15:22:56.855Z,96940.68
2018-09-26T15:25:25.559Z,96945.19
2018-09-26T15:27:54.375Z,96946.54
2018-09-26T15:30:23.221Z,96942.27
2018-09-26T15:32:51.795Z,96943.62
2018-09-26T15:35:20.487Z,96943.48
2018-09-26T15:37:49.596Z,96940.73
2018-09-26T15:40:18.623Z,96933.16
2018-09-26T15:42:47.274Z,96941.62
2018-09-26T15:45:15.951Z,96946.45
2018-09-26T15:47:44.710Z,96942.56
2018-09-26T15:50:13.468Z,96947.56
2018-09-26T15:52:42.263Z,96947.48
2018-09-26T15:55:11.021Z,96946.27
2018-09-26T15:57:39.768Z,96947.39
2018-09-26T16:00:08.611Z,96947.61
2018-09-26T16:02:37.376Z,96960.05
2018-09-26T16:05:06.859Z,96956.56
2018-09-26T16:07:35.566Z,96963.50
2018-09-26T16:10:04.446Z,96963.43
2018-09-26T16:12:33.516Z,96966.95
2018-09-26T16:15:02.365Z,96971.73
2018-09-26T16:17:31.072Z,96972.27
2018-09-26T16:20:00.012Z,96972.23
2018-09-26T16:22:28.794Z,96980.30
2018-09-26T16:24:57.581Z,96981.95
2018-09-26T16:27:26.250Z,96974.70
2018-09-26T16:29:54.984Z,96975.51
2018-09-26T16:32:23.798Z,96981.72
2018-09-26T16:34:52.576Z,96984.29
2018-09-26T16:37:21.271Z,96983.98
2018-09-26T16:39:49.968Z,96981.32
2018-09-26T16:42:18.767Z,96986.42
2018-09-26T16:44:47.429Z,96983.72
2018-09-26T16:47:16.163Z,96992.49
2018-09-26T16:49:45.312Z,97003.42
2018-09-26T16:52:14.709Z,97003.53
2018-09-26T16:54:43.533Z,97002.00
2018-09-26T16:57:12.755Z,97004.83
2018-09-26T16:59:41.662Z,97008.81
2018-09-26T17:02:13.552Z,97014.48
2018-09-26T17:04:42.415Z,97014.03
2018-09-26T17:07:11.182Z,97008.88
2018-09-26T17:09:39.992Z,97018.38
2018-09-26T17:12:08.813Z,97010.25
2018-09-26T17:14:37.588Z,97009.53
2018-09-26T17:17:06.279Z,97017.90
2018-09-26T17:19:34.992Z,97013.91
2018-09-26T17:22:03.860Z,97016.98
2018-09-26T17:24:32.646Z,97009.58
2018-09-26T17:27:01.447Z,97013.00
2018-09-26T17:29:30.251Z,97015.20
2018-09-26T17:31:58.911Z,97022.57
2018-09-26T17:34:27.701Z,96811.98
2018-09-26T17:36:56.480Z,97024.62
2018-09-26T17:39:25.147Z,97031.11
2018-09-26T17:41:53.852Z,97040.00
2018-09-26T17:44:22.589Z,97044.59
2018-09-26T17:46:51.261Z,97036.84
2018-09-26T17:49:20.009Z,97043.34
2018-09-26T17:51:48.848Z,96763.78
2018-09-26T17:54:17.772Z,97038.39
2018-09-26T17:56:46.725Z,97043.28
2018-09-26T17:59:15.468Z,97040.59
2018-09-26T18:01:44.126Z,96834.03
2018-09-26T18:04:12.906Z,97050.02
2018-09-26T18:06:41.652Z,97040.59
2018-09-26T18:09:11.518Z,97043.83
2018-09-26T18:11:40.292Z,97046.03
2018-09-26T18:14:09.245Z,97040.68
2018-09-26T18:16:38.749Z,97044.23
2018-09-26T18:19:08.123Z,97041.84
2018-09-26T18:21:36.972Z,97047.77
2018-09-26T18:24:05.900Z,97042.94
2018-09-26T18:26:34.660Z,97033.82
2018-09-26T18:29:03.377Z,97026.32
2018-09-26T18:31:32.344Z,97026.10
2018-09-26T18:34:01.060Z,97026.95
2018-09-26T18:36:29.773Z,97022.10
2018-09-26T18:38:58.547Z,97026.15
2018-09-26T18:41:27.319Z,97031.31
2018-09-26T18:43:56.111Z,97031.05
2018-09-26T18:46:24.789Z,97029.73
2018-09-26T18:48:53.540Z,97038.30
2018-09-26T18:51:22.391Z,97033.22
2018-09-26T18:53:51.125Z,97027.86
2018-09-26T18:56:19.952Z,97016.04
2018-09-26T18:58:48.997Z,97033.78
2018-09-26T19:01:18.208Z,97029.56
2018-09-26T19:06:34.113Z,97044.08
2018-09-26T19:09:02.917Z,97038.94
2018-09-26T19:11:31.681Z,97041.34
2018-09-26T19:14:00.448Z,97045.13
2018-09-26T19:16:29.155Z,97042.47
2018-09-26T19:18:57.913Z,97050.84
2018-09-26T19:21:26.624Z,97042.53
2018-09-26T19:23:55.486Z,97046.27
2018-09-26T19:26:24.382Z,97056.73
2018-09-26T19:28:53.069Z,97051.36
2018-09-26T19:31:21.844Z,97051.37
2018-09-26T19:33:50.614Z,97053.30
2018-09-26T19:36:19.497Z,97048.73
2018-09-26T19:38:48.398Z,97058.42
2018-09-26T19:41:17.244Z,97054.64
2018-09-26T19:43:46.060Z,97064.86
2018-09-26T19:46:14.931Z,97068.35
2018-09-26T19:48:43.692Z,97062.17
2018-09-26T19:51:12.420Z,97064.32
2018-09-26T19:53:41.188Z,97063.80
2018-09-26T19:56:09.966Z,97060.58
2018-09-26T19:58:38.698Z,97058.70
2018-09-26T20:01:07.647Z,97051.45
2018-09-26T20:03:36.424Z,97055.73
2018-09-26T20:06:05.156Z,97056.55
2018-09-26T20:08:34.061Z,97053.05
2018-09-26T20:11:03.807Z,97051.98
2018-09-26T20:13:32.520Z,97046.89
2018-09-26T20:16:01.208Z,97032.38
2018-09-26T20:18:30.012Z,97040.98
2018-09-26T20:20:58.691Z,97046.59
2018-09-26T20:23:27.548Z,97046.33
2018-09-26T20:25:56.396Z,97055.17
2018-09-26T20:28:25.304Z,97053.58
2018-09-26T20:30:54.107Z,97049.02
2018-09-26T20:33:22.778Z,97046.33
2018-09-26T20:35:51.522Z,97042.86
2018-09-26T20:38:20.409Z,97046.61
2018-09-26T20:40:49.099Z,97046.05
2018-09-26T20:43:17.904Z,97048.73
2018-09-26T20:45:46.759Z,97047.39
2018-09-26T20:48:15.539Z,97046.33
2018-09-26T20:50:44.292Z,97049.55
2018-09-26T20:53:13.073Z,97053.86
2018-09-26T20:55:41.997Z,97044.73
2018-09-26T20:58:10.814Z,97045.55
2018-09-26T21:00:39.632Z,97046.87
2018-09-26T21:03:08.489Z,97040.44
2018-09-26T21:05:37.346Z,96999.91
2018-09-26T21:08:06.096Z,97041.48
2018-09-26T21:10:34.950Z,97039.62
2018-09-26T21:13:03.770Z,97041.78
2018-09-26T21:15:32.478Z,97044.98
2018-09-26T21:18:01.244Z,97037.48
2018-09-26T21:20:30.005Z,96887.99
2018-09-26T21:22:58.865Z,97039.35
2018-09-26T21:25:27.597Z,97045.80
2018-09-26T21:27:56.309Z,97043.36
2018-09-26T21:30:25.060Z,97046.61
2018-09-26T21:32:53.824Z,97046.05
2018-09-26T21:35:22.629Z,97042.58
2018-09-26T21:37:51.519Z,97050.33
2018-09-26T21:40:20.320Z,97059.72
2018-09-26T21:42:49.068Z,97056.17
2018-09-26T21:45:17.712Z,97058.32
2018-09-26T21:47:46.497Z,97062.39
2018-09-26T21:50:15.355Z,97061.28
2018-09-26T21:52:44.058Z,97058.27
2018-09-26T21:55:12.776Z,97054.49
2018-09-26T21:57:41.456Z,97041.39
2018-09-26T22:00:10.252Z,97048.61
2018-09-26T22:02:38.971Z,97048.81
2018-09-26T22:05:07.749Z,97043.94
2018-09-26T22:07:36.661Z,97041.72
2018-09-26T22:10:05.476Z,97044.17
2018-09-26T22:12:34.080Z,97041.87
2018-09-26T22:15:02.834Z,97044.08
2018-09-26T22:17:31.578Z,97028.99
2018-09-26T22:20:00.316Z,97035.39
2018-09-26T22:22:31.864Z,97048.01
2018-09-26T22:25:00.712Z,97045.28
2018-09-26T22:27:29.419Z,97061.05
2018-09-26T22:29:58.140Z,97047.38
2018-09-26T22:32:26.865Z,97062.38
2018-09-26T22:34:55.661Z,97050.80
2018-09-26T22:37:24.396Z,97049.05
2018-09-26T22:39:53.171Z,97039.17
2018-09-26T22:42:21.868Z,97045.59
2018-09-26T22:44:50.545Z,97051.26
2018-09-26T22:47:19.404Z,97043.49
2018-09-26T22:49:48.048Z,97039.14
2018-09-26T22:52:16.875Z,97043.92
2018-09-26T22:54:45.702Z,97049.51
2018-09-26T22:57:14.395Z,97045.00
2018-09-26T22:59:43.205Z,97046.77
2018-09-26T23:02:11.896Z,97048.08
2018-09-26T23:04:40.549Z,97043.23
2018-09-26T23:07:09.223Z,97045.36
2018-09-26T23:09:37.864Z,97037.34
2018-09-26T23:12:06.801Z,97036.42
2018-09-26T23:14:35.719Z,97042.32
2018-09-26T23:17:04.460Z,97031.94
2018-09-26T23:19:33.169Z,97045.03
2018-09-26T23:22:01.925Z,97032.95
2018-09-26T23:24:30.591Z,97029.84
2018-09-26T23:26:59.310Z,97028.55
2018-09-26T23:29:28.048Z,97025.83
2018-09-26T23:31:56.857Z,97025.59
2018-09-26T23:34:25.569Z,97016.34
2018-09-26T23:36:54.223Z,97019.75
2018-09-26T23:39:22.992Z,97018.00
2018-09-26T23:41:51.695Z,97014.75
2018-09-26T23:44:20.312Z,97012.17
2018-09-26T23:46:49.008Z,97002.58
2018-09-26T23:49:17.610Z,97003.39
2018-09-26T23:51:46.309Z,97001.23
2018-09-26T23:54:15.375Z,96995.42
2018-09-26T23:56:44.079Z,96999.41
2018-09-26T23:59:12.854Z,96989.22
